Nibulon 1 — UUAS4 — position and weather

sailwx.info

Track history (hours):
 
Tides and Currents Weather Stations Pressure Air Temp Water Temp Dewpoint Dewpoint Depression Visibility Wind Speed Wind Dir Waves Ship Positions

Nibulon 1

Last reported at 2015-May-01 09:33 UTC. Time now 2015-May-05 17:18 UTC.
Position N 47°57' E 035°07'.

Length 38 m; draft 2.6 m.

Type: Tug. MMSI: 272641000.

Date/timePositionNaut miles runAvg speedWind from/ knotsBaromVisibWave heightAir tempDewpointWater temp
2015-May-01 09:33N 47°57' E 035°07'4 4.4
2015-May-01 08:33N 47°53' E 035°06'1 0.9
2015-May-01 07:28N 47°52' E 035°05'4 4.2
2015-May-01 06:33N 47°49' E 035°09'4 3.5
2015-May-01 05:29N 47°52' E 035°05'1 1.2
2015-May-01 04:33N 47°53' E 035°06'1 0.7
2015-May-01 03:33N 47°52' E 035°06'1 0.6
2015-May-01 02:33N 47°52' E 035°05'4 4.2
2015-May-01 01:33N 47°48' E 035°09'0 0.0
2015-May-01 00:33N 47°48' E 035°09'0 0.0
2015-Apr-30 23:33N 47°48' E 035°09'0 0.0
2015-Apr-30 22:33N 47°48' E 035°09'0 0.0
2015-Apr-30 21:33N 47°48' E 035°09'0 0.0
2015-Apr-30 20:34N 47°48' E 035°09'0 0.3
2015-Apr-30 19:33N 47°48' E 035°10'0 0.3
2015-Apr-30 18:33N 47°48' E 035°09'4 3.9
2015-Apr-30 17:33N 47°45' E 035°10'6 5.6
2015-Apr-30 16:33N 47°39' E 035°07'1 1.2
2015-Apr-30 15:33N 47°38' E 035°06'0 0.0
2015-Apr-30 14:33N 47°38' E 035°06'0 0.1
2015-Apr-30 13:33N 47°38' E 035°06'0 0.0
2015-Apr-30 12:34N 47°38' E 035°06'4 3.5
2015-Apr-30 11:34N 47°36' E 035°03'117 3.7
2015-Apr-29 04:12N 46°36' E 032°35'12 4.6
2015-Apr-29 01:33N 46°33' E 032°18'6 5.5
2015-Apr-29 00:26N 46°32' E 032°09'4 5.1
2015-Apr-28 23:34N 46°33' E 032°03'6 5.9
2015-Apr-28 22:33N 46°38' E 031°57'5 5.4
2015-Apr-28 21:33N 46°43' E 031°56'5 5.2
2015-Apr-28 20:33N 46°48' E 031°53'6 5.8
2015-Apr-28 19:33N 46°52' E 031°59'4 3.9
2015-Apr-28 18:33N 46°56' E 031°59'0 0.3
2015-Apr-28 17:33N 46°57' E 031°59'0 0.2
2015-Apr-28 16:33N 46°57' E 031°59'0 0.0
2015-Apr-28 15:33N 46°57' E 031°59'0 0.0
2015-Apr-28 14:33N 46°57' E 031°59'0 0.0
2015-Apr-28 13:33N 46°57' E 031°59'0 0.0
2015-Apr-28 12:33N 46°57' E 031°59'0 0.0
2015-Apr-28 11:33N 46°57' E 031°59'0 0.0
2015-Apr-28 10:33N 46°57' E 031°59'0 0.0
2015-Apr-28 09:33N 46°57' E 031°59'0 0.0
2015-Apr-28 08:34N 46°57' E 031°59'0 0.0
2015-Apr-28 07:33N 46°57' E 031°59'0 0.0
2015-Apr-28 06:33N 46°57' E 031°59'0 0.0
2015-Apr-28 05:33N 46°57' E 031°59'0 0.0
2015-Apr-28 04:33N 46°57' E 031°59'0 0.0
2015-Apr-28 03:33N 46°57' E 031°59'0 0.0
2015-Apr-28 02:33N 46°57' E 031°59'0 0.0
2015-Apr-28 01:33N 46°57' E 031°59'0 0.0
2015-Apr-28 00:33N 46°57' E 031°59'0 0.0
2015-Apr-27 23:33N 46°57' E 031°59'0 0.0
2015-Apr-27 22:33N 46°57' E 031°59'0 0.0
2015-Apr-27 21:33N 46°57' E 031°59'0 0.0
2015-Apr-27 20:33N 46°57' E 031°59'0 0.0
2015-Apr-27 19:33N 46°57' E 031°59'0 0.0
2015-Apr-27 18:33N 46°57' E 031°59'0 0.0
2015-Apr-27 17:33N 46°57' E 031°59'0 0.0
2015-Apr-27 16:33N 46°57' E 031°59'0 0.0
2015-Apr-27 15:33N 46°57' E 031°59'0 0.0
2015-Apr-27 14:33N 46°57' E 031°59'0 0.0
2015-Apr-27 13:33N 46°57' E 031°59'0 0.0
2015-Apr-27 12:33N 46°57' E 031°59'0 0.0
2015-Apr-27 11:33N 46°57' E 031°59'0 0.0
2015-Apr-27 10:34N 46°57' E 031°59'0 0.0
2015-Apr-27 09:34N 46°57' E 031°59'0 0.2
2015-Apr-27 08:34N 46°57' E 031°59'1 1.3
2015-Apr-27 07:33N 46°56' E 032°01'3 3.2
2015-Apr-27 06:33N 46°53' E 031°59'4 3.7
2015-Apr-27 05:34N 46°50' E 031°56'4 3.6
2015-Apr-27 04:33N 46°47' E 031°53'3 3.3
2015-Apr-27 03:34N 46°44' E 031°55'4 3.8
2015-Apr-27 02:33N 46°40' E 031°56'3 3.4
2015-Apr-27 01:33N 46°37' E 031°58'4 3.6
2015-Apr-27 00:33N 46°34' E 032°01'4 3.6
2015-Apr-26 23:33N 46°32' E 032°05'4 3.9
2015-Apr-26 22:31N 46°33' E 032°11'4 4.0
2015-Apr-26 21:33N 46°33' E 032°17'52 2.7
2015-Apr-26 02:32N 46°50' E 033°28'  
2015-Apr-23 02:29N 47°30' E 034°21'108 3.4
2015-Apr-21 19:10N 46°32' E 032°08'3 5.6
2015-Apr-21 18:33N 46°33' E 032°03'6 5.7
2015-Apr-21 17:33N 46°37' E 031°58'5 5.1
2015-Apr-21 16:33N 46°42' E 031°56'5 5.0
2015-Apr-21 15:34N 46°47' E 031°53'5 5.2
2015-Apr-21 14:34N 46°51' E 031°57'5 5.3
2015-Apr-21 13:34N 46°56' E 032°01'2 1.5
2015-Apr-21 12:33N 46°57' E 031°59'0 0.3
2015-Apr-21 11:33N 46°57' E 031°59'0 0.3
2015-Apr-21 10:33N 46°57' E 031°59'  
Track history (hours):
 
Tides and Currents Weather Stations Pressure Air Temp Water Temp Dewpoint Dewpoint Depression Visibility Wind Speed Wind Dir Waves Ship Positions

Nibulon 1

Last reported at 2015-May-01 09:33 UTC. Time now 2015-May-05 17:18 UTC.
Position N 47°57' E 035°07'.

Length 38 m; draft 2.6 m.

Type: Tug. MMSI: 272641000.

Date/timePositionNaut miles runAvg speedWind from/ knotsBaromVisibWave heightAir tempDewpointWater temp
2015-May-01 09:33N 47°57' E 035°07'4 4.4
2015-May-01 08:33N 47°53' E 035°06'1 0.9
2015-May-01 07:28N 47°52' E 035°05'4 4.2
2015-May-01 06:33N 47°49' E 035°09'4 3.5
2015-May-01 05:29N 47°52' E 035°05'1 1.2
2015-May-01 04:33N 47°53' E 035°06'1 0.7
2015-May-01 03:33N 47°52' E 035°06'1 0.6
2015-May-01 02:33N 47°52' E 035°05'4 4.2
2015-May-01 01:33N 47°48' E 035°09'0 0.0
2015-May-01 00:33N 47°48' E 035°09'0 0.0
2015-Apr-30 23:33N 47°48' E 035°09'0 0.0
2015-Apr-30 22:33N 47°48' E 035°09'0 0.0
2015-Apr-30 21:33N 47°48' E 035°09'0 0.0
2015-Apr-30 20:34N 47°48' E 035°09'0 0.3
2015-Apr-30 19:33N 47°48' E 035°10'0 0.3
2015-Apr-30 18:33N 47°48' E 035°09'4 3.9
2015-Apr-30 17:33N 47°45' E 035°10'6 5.6
2015-Apr-30 16:33N 47°39' E 035°07'1 1.2
2015-Apr-30 15:33N 47°38' E 035°06'0 0.0
2015-Apr-30 14:33N 47°38' E 035°06'0 0.1
2015-Apr-30 13:33N 47°38' E 035°06'0 0.0
2015-Apr-30 12:34N 47°38' E 035°06'4 3.5
2015-Apr-30 11:34N 47°36' E 035°03'117 3.7
2015-Apr-29 04:12N 46°36' E 032°35'12 4.6
2015-Apr-29 01:33N 46°33' E 032°18'6 5.5
2015-Apr-29 00:26N 46°32' E 032°09'4 5.1
2015-Apr-28 23:34N 46°33' E 032°03'6 5.9
2015-Apr-28 22:33N 46°38' E 031°57'5 5.4
2015-Apr-28 21:33N 46°43' E 031°56'5 5.2
2015-Apr-28 20:33N 46°48' E 031°53'6 5.8
2015-Apr-28 19:33N 46°52' E 031°59'4 3.9
2015-Apr-28 18:33N 46°56' E 031°59'0 0.3
2015-Apr-28 17:33N 46°57' E 031°59'0 0.2
2015-Apr-28 16:33N 46°57' E 031°59'0 0.0
2015-Apr-28 15:33N 46°57' E 031°59'0 0.0
2015-Apr-28 14:33N 46°57' E 031°59'0 0.0
2015-Apr-28 13:33N 46°57' E 031°59'0 0.0
2015-Apr-28 12:33N 46°57' E 031°59'0 0.0
2015-Apr-28 11:33N 46°57' E 031°59'0 0.0
2015-Apr-28 10:33N 46°57' E 031°59'0 0.0
2015-Apr-28 09:33N 46°57' E 031°59'0 0.0
2015-Apr-28 08:34N 46°57' E 031°59'0 0.0
2015-Apr-28 07:33N 46°57' E 031°59'0 0.0
2015-Apr-28 06:33N 46°57' E 031°59'0 0.0
2015-Apr-28 05:33N 46°57' E 031°59'0 0.0
2015-Apr-28 04:33N 46°57' E 031°59'0 0.0
2015-Apr-28 03:33N 46°57' E 031°59'0 0.0
2015-Apr-28 02:33N 46°57' E 031°59'0 0.0
2015-Apr-28 01:33N 46°57' E 031°59'0 0.0
2015-Apr-28 00:33N 46°57' E 031°59'0 0.0
2015-Apr-27 23:33N 46°57' E 031°59'0 0.0
2015-Apr-27 22:33N 46°57' E 031°59'0 0.0
2015-Apr-27 21:33N 46°57' E 031°59'0 0.0
2015-Apr-27 20:33N 46°57' E 031°59'0 0.0
2015-Apr-27 19:33N 46°57' E 031°59'0 0.0
2015-Apr-27 18:33N 46°57' E 031°59'0 0.0
2015-Apr-27 17:33N 46°57' E 031°59'0 0.0
2015-Apr-27 16:33N 46°57' E 031°59'0 0.0
2015-Apr-27 15:33N 46°57' E 031°59'0 0.0
2015-Apr-27 14:33N 46°57' E 031°59'0 0.0
2015-Apr-27 13:33N 46°57' E 031°59'0 0.0
2015-Apr-27 12:33N 46°57' E 031°59'0 0.0
2015-Apr-27 11:33N 46°57' E 031°59'0 0.0
2015-Apr-27 10:34N 46°57' E 031°59'0 0.0
2015-Apr-27 09:34N 46°57' E 031°59'0 0.2
2015-Apr-27 08:34N 46°57' E 031°59'1 1.3
2015-Apr-27 07:33N 46°56' E 032°01'3 3.2
2015-Apr-27 06:33N 46°53' E 031°59'4 3.7
2015-Apr-27 05:34N 46°50' E 031°56'4 3.6
2015-Apr-27 04:33N 46°47' E 031°53'3 3.3
2015-Apr-27 03:34N 46°44' E 031°55'4 3.8
2015-Apr-27 02:33N 46°40' E 031°56'3 3.4
2015-Apr-27 01:33N 46°37' E 031°58'4 3.6
2015-Apr-27 00:33N 46°34' E 032°01'4 3.6
2015-Apr-26 23:33N 46°32' E 032°05'4 3.9
2015-Apr-26 22:31N 46°33' E 032°11'4 4.0
2015-Apr-26 21:33N 46°33' E 032°17'52 2.7
2015-Apr-26 02:32N 46°50' E 033°28'  
2015-Apr-23 02:29N 47°30' E 034°21'108 3.4
2015-Apr-21 19:10N 46°32' E 032°08'3 5.6
2015-Apr-21 18:33N 46°33' E 032°03'6 5.7
2015-Apr-21 17:33N 46°37' E 031°58'5 5.1
2015-Apr-21 16:33N 46°42' E 031°56'5 5.0
2015-Apr-21 15:34N 46°47' E 031°53'5 5.2
2015-Apr-21 14:34N 46°51' E 031°57'5 5.3
2015-Apr-21 13:34N 46°56' E 032°01'2 1.5
2015-Apr-21 12:33N 46°57' E 031°59'0 0.3
2015-Apr-21 11:33N 46°57' E 031°59'0 0.3
2015-Apr-21 10:33N 46°57' E 031°59'  

Dump ship's entire track history